Latest Weather Observations for Mallacoota

IDV60801

Issued at 11:02 am EDT Tuesday 23 December 2014 (issued every 30 minutes, with the page automatically refreshed every 10 minutes)

About weather observations | Map of weather stations | Latest weather observations for VIC | Other Formats
Station Details ID: 084084 Name: MALLACOOTA Lat: -37.60 Lon: 149.73 Height: 22.0 m
Data from the previous 72 hours. | See also: Recent months at Mallacoota
Date/Time
EDT
Temp
°C
App
Temp
°C
Dew
Point
Rel
Hum
%
Delta-T
°C
Wind Press
QNH
hPa
Press
MSL
hPa
Rain
since 9 am
mm
Dir
 
Spd
km/h
Gust
km/h
Spd
kts
Gust
kts
23/11:00am 21.4 21.6 19.3 88 1.3 N 17 26 9 14 1011.4 - 2.6
23/10:30am 20.9 21.9 19.4 91 1.0 NNE 13 19 7 10 1011.6 - 2.6
23/10:00am 19.8 20.7 18.5 92 0.8 NNE 11 13 6 7 1011.9 - 2.6
23/09:30am 19.8 20.0 18.5 92 0.8 NNE 15 22 8 12 1011.9 - 2.6
23/09:00am 19.7 19.7 18.2 91 0.9 N 15 20 8 11 1012.2 1012.1 3.6
23/08:30am 19.7 21.3 18.2 91 0.9 NNW 7 11 4 6 1012.1 - 2.8
23/08:00am 19.6 20.5 18.3 92 0.8 N 11 15 6 8 1011.4 - 2.8
23/07:30am 19.5 20.3 18.2 92 0.8 N 11 15 6 8 1011.4 - 2.8
23/07:00am 19.4 20.5 18.1 92 0.8 N 9 13 5 7 1011.7 - 2.4
23/06:30am 19.5 20.6 18.0 91 0.9 N 9 13 5 7 1011.5 - 1.6
23/06:00am 19.6 20.7 18.1 91 0.9 N 9 15 5 8 1011.5 1011.4 0.8
23/05:30am 19.8 20.9 18.1 90 1.1 N 9 15 5 8 1011.2 - 0.4
23/05:00am 19.8 21.3 18.1 90 1.1 N 7 9 4 5 1011.1 - 0.2
23/04:30am 20.0 21.1 18.1 89 1.2 NNE 9 15 5 8 1010.7 - 0.2
23/04:00am 20.1 20.8 18.0 88 1.3 N 11 19 6 10 1011.1 - 0.0
23/03:30am 20.2 20.9 18.0 87 1.4 N 11 17 6 9 1011.0 - 0.0
23/03:00am 20.4 20.4 18.0 86 1.5 N 15 20 8 11 1011.2 1011.1 0.0
23/02:30am 20.7 20.1 17.5 82 2.0 N 17 26 9 14 1011.4 - 0.0
23/02:00am 21.7 20.9 17.1 75 2.8 N 17 24 9 13 1011.4 - 0.0
23/01:30am 21.6 21.2 17.2 76 2.7 N 15 28 8 15 1011.4 - 0.0
23/01:00am 21.6 20.3 16.8 74 2.9 N 19 32 10 17 1011.3 - 0.0
23/12:30am 22.3 20.2 16.3 69 3.6 N 22 32 12 17 1011.4 - 0.0
23/12:00am 22.2 22.5 16.9 72 3.2 NNE 11 17 6 9 1010.9 1010.8 0.0
 
Date/Time
EDT
Temp
°C
App
Temp
°C
Dew
Point
Rel
Hum
%
Delta-T
°C
Wind Press
QNH
hPa
Press
MSL
hPa
Rain
since 9 am
mm
Dir
 
Spd
km/h
Gust
km/h
Spd
kts
Gust
kts
22/11:30pm 22.1 21.3 17.0 73 3.1 N 17 28 9 15 1011.2 - 0.0
22/11:00pm 22.4 19.5 17.1 72 3.3 N 28 37 15 20 1010.8 - 0.0
22/10:40pm 22.5 19.7 17.2 72 3.3 N 28 46 15 25 1011.1 - 0.0
22/10:30pm 22.4 20.0 17.3 73 3.1 N 26 44 14 24 1011.3 - 0.0
22/10:00pm 22.3 21.2 17.4 74 3.0 N 19 33 10 18 1011.7 - 0.0
22/09:30pm 22.7 23.3 17.8 74 3.0 NNE 11 20 6 11 1011.4 - 0.0
22/09:00pm 21.1 19.9 17.1 78 2.4 NNE 19 26 10 14 1010.7 1010.6 0.0
22/08:30pm 23.6 23.6 17.3 67 3.9 NNE 13 19 7 10 1010.7 - 0.0
22/08:00pm 24.0 24.1 17.5 67 4.0 N 13 19 7 10 1010.7 - 0.0
22/07:30pm 24.2 24.1 17.9 68 3.9 N 15 22 8 12 1011.2 - 0.0
22/07:00pm 24.3 23.0 18.2 68 3.8 N 22 33 12 18 1011.2 - 0.0
22/06:30pm 24.5 24.2 18.2 68 4.0 N 17 22 9 12 1011.0 - 0.0
22/06:00pm 25.2 25.8 17.7 63 4.7 NNE 11 15 6 8 1011.0 1010.9 0.0
22/05:30pm 25.3 25.4 17.5 62 4.9 NNE 13 20 7 11 1010.7 - 0.0
22/05:00pm 22.5 21.4 17.4 73 3.2 ENE 19 26 10 14 1010.5 - 0.0
22/04:30pm 27.0 27.7 18.0 58 5.7 NNE 11 19 6 10 1010.4 - 0.0
22/04:00pm 27.5 26.7 18.5 58 5.8 NNE 20 33 11 18 1010.4 - 0.0
22/03:30pm 28.9 26.1 17.4 49 7.3 N 28 46 15 25 1011.0 - 0.0
22/03:23pm 29.2 26.2 16.7 46 7.8 N 28 46 15 25 1011.2 - 0.0
22/03:00pm 28.7 26.6 16.3 47 7.7 NNE 22 35 12 19 1010.8 1010.7 0.0
22/02:30pm 29.5 27.4 16.3 45 8.2 NNE 22 33 12 18 1011.0 - 0.0
22/02:00pm 29.6 27.1 16.1 44 8.4 NNE 24 33 13 18 1011.1 - 0.0
22/01:30pm 28.1 27.1 17.6 53 6.6 ENE 19 24 10 13 1012.0 - 0.0
22/01:00pm 28.9 29.1 17.7 50 7.1 NNE 13 22 7 12 1012.6 - 0.0
22/12:30pm 30.4 29.2 17.1 44 8.4 N 19 26 10 14 1012.9 - 0.0
22/12:00pm 29.0 30.0 18.7 53 6.6 NE 11 19 6 10 1013.0 1012.9 0.0
22/11:30am 25.3 26.8 19.0 68 4.0 E 9 11 5 6 1013.3 - 0.0
22/11:00am 25.5 25.6 17.4 61 5.1 NE 13 22 7 12 1013.6 - 0.0
22/10:30am 27.6 26.0 17.5 54 6.4 N 22 33 12 18 1013.5 - 0.0
22/10:00am 26.8 26.6 16.7 54 6.3 N 13 20 7 11 1013.8 - 0.0
22/09:30am 25.7 24.2 16.8 58 5.5 N 20 30 11 16 1013.8 - 0.0
22/09:00am 24.6 24.4 17.6 65 4.4 N 15 22 8 12 1013.7 1013.6 0.0
22/08:30am 23.1 23.4 17.8 72 3.3 N 13 20 7 11 1013.7 - 0.0
22/08:00am 21.3 22.4 18.1 82 2.0 N 9 17 5 9 1013.9 - 0.0
22/07:30am 20.2 20.2 18.1 88 1.3 N 15 20 8 11 1013.8 - 0.0
22/07:00am 19.1 18.9 17.6 91 0.9 NNW 15 19 8 10 1013.8 - 0.0
22/06:30am 18.0 17.1 16.9 93 0.7 NNW 17 22 9 12 1013.8 - 0.0
22/06:00am 17.3 17.3 16.3 94 0.6 NNW 11 17 6 9 1013.6 1013.5 0.0
22/05:30am 16.6 17.6 15.3 92 0.8 NNW 4 11 2 6 1013.6 - 0.0
22/05:00am 17.4 18.2 16.3 93 0.7 N 7 11 4 6 1013.4 - 0.0
22/04:30am 17.5 18.3 16.4 93 0.7 NNW 7 13 4 7 1013.4 - 0.0
22/04:00am 17.5 17.6 16.4 93 0.7 NNW 11 15 6 8 1013.4 - 0.0
22/03:30am 17.2 17.1 15.9 92 0.8 N 11 13 6 7 1013.6 - 0.0
22/03:00am 17.6 17.5 16.1 91 0.9 NNW 11 15 6 8 1014.0 1013.9 0.0
22/02:30am 16.4 16.8 14.8 90 0.9 N 6 7 3 4 1014.3 - 0.0
22/02:00am 17.3 18.4 15.5 89 1.1 ENE 4 6 2 3 1014.4 - 0.0
22/01:30am 18.1 18.9 16.3 89 1.1 N 7 11 4 6 1014.2 - 0.0
22/01:00am 18.3 18.8 16.5 89 1.1 NNW 9 13 5 7 1014.2 - 0.0
22/12:30am 18.6 19.0 16.4 87 1.3 N 9 15 5 8 1014.4 - 0.0
22/12:00am 19.0 18.8 16.8 87 1.3 NNW 13 19 7 10 1014.3 1014.2 0.0
 
Date/Time
EDT
Temp
°C
App
Temp
°C
Dew
Point
Rel
Hum
%
Delta-T
°C
Wind Press
QNH
hPa
Press
MSL
hPa
Rain
since 9 am
mm
Dir
 
Spd
km/h
Gust
km/h
Spd
kts
Gust
kts
21/11:30pm 19.2 19.0 16.6 85 1.6 NNW 13 19 7 10 1014.4 - 0.0
21/11:00pm 19.5 18.5 16.7 84 1.7 NNW 17 22 9 12 1014.5 - 0.0
21/10:30pm 19.6 19.0 16.6 83 1.8 NNW 15 22 8 12 1014.6 - 0.0
21/10:00pm 19.8 19.5 16.4 81 2.0 NNW 13 17 7 9 1014.7 - 0.0
21/09:30pm 20.2 19.9 16.4 79 2.3 NNW 13 20 7 11 1014.6 - 0.0
21/09:00pm 20.7 20.2 15.9 74 2.9 N 13 17 7 9 1014.5 1014.4 0.0
21/08:30pm 21.2 21.1 16.0 72 3.1 NNW 11 17 6 9 1014.6 - 0.0
21/08:00pm 22.2 22.3 16.5 70 3.5 NNW 11 17 6 9 1014.5 - 0.0
21/07:30pm 23.3 23.6 17.1 68 3.8 N 11 19 6 10 1014.1 - 0.0
21/07:00pm 24.8 24.8 17.3 63 4.7 N 13 19 7 10 1013.8 - 0.0
21/06:30pm 24.7 24.8 17.4 64 4.5 NNE 13 19 7 10 1013.4 - 0.0
21/06:00pm 23.7 25.4 18.4 72 3.3 NE 7 13 4 7 1013.5 1013.4 0.0
21/05:30pm 23.3 25.0 18.4 74 3.1 NE 7 15 4 8 1013.7 - 0.0
21/05:00pm 23.5 24.1 18.6 74 3.1 NE 13 20 7 11 1013.7 - 0.0
21/04:30pm 23.4 22.9 17.8 71 3.5 ENE 17 24 9 13 1013.7 - 0.0
21/04:00pm 23.0 22.2 17.9 73 3.2 ENE 19 24 10 13 1013.8 - 0.0
21/03:30pm 22.5 21.3 17.0 71 3.4 ENE 19 26 10 14 1014.0 - 0.0
21/03:00pm 22.5 22.1 17.2 72 3.3 ENE 15 22 8 12 1014.1 1014.0 0.0
21/02:30pm 22.6 21.9 17.3 72 3.3 ENE 17 26 9 14 1014.3 - 0.0
21/02:00pm 22.4 21.2 17.1 72 3.3 ENE 19 28 10 15 1014.4 - 0.0
21/01:30pm 22.3 21.1 17.0 72 3.3 E 19 24 10 13 1014.5 - 0.0
21/01:00pm 22.1 20.5 16.6 71 3.3 E 20 30 11 16 1014.9 - 0.0
21/12:30pm 22.5 21.2 16.8 70 3.5 E 19 24 10 13 1015.1 - 0.0
21/12:00pm 22.6 22.0 16.6 69 3.7 ENE 15 20 8 11 1015.6 1015.5 0.0
21/11:30am 22.3 22.2 15.9 67 3.9 ESE 11 15 6 8 1015.9 - 0.0
21/11:00am 20.5 20.2 15.5 73 3.0 SE 11 13 6 7 1015.9 - 0.0
21/10:30am 19.6 19.1 15.0 75 2.7 ESE 11 13 6 7 1016.0 - 0.0
21/10:00am 19.2 18.6 14.7 75 2.6 ESE 11 13 6 7 1016.3 - 0.0
21/09:30am 18.3 17.6 13.2 72 2.9 SE 9 11 5 6 1016.6 - 0.0
21/09:00am 18.4 17.9 13.7 74 2.7 E 9 11 5 6 1016.7 1016.6 0.0
21/08:30am 18.5 18.4 14.0 75 2.6 ENE 7 9 4 5 1016.7 - 0.0
21/08:00am 16.8 16.4 14.1 84 1.5 N 9 13 5 7 1016.5 - 0.0
21/07:30am 14.2 13.4 12.8 91 0.8 NNW 9 13 5 7 1016.3 - 0.0
21/07:00am 13.1 12.3 11.8 92 0.7 NNW 7 13 4 7 1016.3 - 0.0
21/06:30am 12.3 10.2 11.2 93 0.6 NW 13 15 7 8 1016.3 - 0.0
21/06:00am 11.0 8.9 9.9 93 0.6 NW 11 17 6 9 1016.1 1016.0 0.0
21/05:30am 10.7 8.9 9.6 93 0.6 NW 9 13 5 7 1016.0 - 0.0
21/05:00am 11.0 8.9 9.9 93 0.6 NW 11 13 6 7 1016.1 - 0.0
21/04:30am 11.1 9.0 9.9 92 0.6 NW 11 15 6 8 1016.2 - 0.0
21/04:00am 11.0 9.7 9.8 92 0.6 NW 7 11 4 6 1016.5 - 0.0
21/03:30am 11.7 10.2 10.4 92 0.7 WNW 9 13 5 7 1016.7 - 0.0
21/03:00am 11.7 10.1 10.3 91 0.7 NW 9 11 5 6 1016.9 1016.8 0.0
21/02:30am 11.7 10.1 10.3 91 0.7 NW 9 11 5 6 1017.1 - 0.0
21/02:00am 11.9 10.0 10.5 91 0.7 NW 11 11 6 6 1017.3 - 0.0
21/01:30am 12.1 11.2 10.5 90 0.8 WNW 6 7 3 4 1017.5 - 0.0
21/01:00am 12.2 11.7 10.6 90 0.8 NW 4 7 2 4 1017.8 - 0.0
21/12:30am 12.6 11.7 10.8 89 0.9 WNW 6 9 3 5 1017.9 - 0.0
21/12:00am 13.0 12.6 11.1 88 1.0 NW 4 6 2 3 1018.0 1017.9 0.0
 
Date/Time
EDT
Temp
°C
App
Temp
°C
Dew
Point
Rel
Hum
%
Delta-T
°C
Wind Press
QNH
hPa
Press
MSL
hPa
Rain
since 9 am
mm
Dir
 
Spd
km/h
Gust
km/h
Spd
kts
Gust
kts
20/11:30pm 13.6 12.9 11.5 87 1.1 NW 6 7 3 4 1018.3 - 0.0
20/11:00pm 13.9 13.1 11.6 86 1.2 NW 7 9 4 5 1018.3 - 0.0
20/10:30pm 14.4 13.3 11.9 85 1.3 NW 9 11 5 6 1018.4 - 0.0
20/10:00pm 15.0 14.3 12.0 82 1.6 WNW 7 11 4 6 1018.3 - 0.0
20/09:30pm 14.7 13.8 11.5 81 1.7 W 7 9 4 5 1018.1 - 0.0
20/09:00pm 15.3 14.6 11.3 77 2.1 WSW 6 9 3 5 1017.8 1017.7 0.0
20/08:30pm 16.2 14.9 11.4 73 2.6 SW 9 13 5 7 1017.6 - 0.0
20/08:00pm 17.0 15.1 11.9 72 2.8 SSW 13 17 7 9 1017.3 - 0.0
20/07:30pm 17.6 14.7 12.3 71 2.9 SSW 19 26 10 14 1017.0 - 0.0
20/07:00pm 18.3 15.3 12.1 67 3.4 SSW 19 28 10 15 1016.7 - 0.0
20/06:30pm 18.9 16.0 12.2 65 3.7 S 19 28 10 15 1016.5 - 0.0
20/06:00pm 18.7 16.0 11.8 64 3.8 S 17 28 9 15 1016.4 1016.3 0.0
20/05:30pm 18.9 15.7 11.9 64 3.9 SSW 20 35 11 19 1016.3 - 0.0
20/05:00pm 18.3 14.6 11.4 64 3.8 SSW 22 33 12 18 1016.3 - 0.0
20/04:30pm 18.7 14.6 11.3 62 4.0 SSW 24 37 13 20 1016.5 - 0.0
20/04:00pm 18.0 12.8 11.6 66 3.5 SSW 30 43 16 23 1016.6 - 0.0
20/03:30pm 18.7 15.0 11.5 63 3.9 S 22 39 12 21 1016.8 - 0.0
20/03:00pm 18.7 15.0 11.5 63 3.9 S 22 35 12 19 1016.7 1016.6 0.0
20/02:30pm 19.1 15.7 12.4 65 3.7 S 22 37 12 20 1016.7 - 0.0
20/02:00pm 18.1 14.5 11.7 66 3.5 S 22 35 12 19 1016.7 - 0.0
20/01:30pm 18.1 13.9 11.0 63 3.8 S 24 43 13 23 1016.9 - 0.0
20/01:00pm 19.0 15.2 11.3 61 4.2 S 22 37 12 20 1017.1 - 0.0
20/12:30pm 18.5 13.9 11.1 62 4.0 S 26 39 14 21 1017.3 - 0.0
20/12:00pm 19.3 14.9 10.3 56 4.8 SSW 24 39 13 21 1017.5 1017.4 0.0
20/11:30am 19.5 15.4 8.8 50 5.6 S 20 33 11 18 1017.4 - 0.0

Other Formats:

Comma delimited format used in spreadsheet applications
http://www.bom.gov.au/fwo/IDV60801/IDV60801.94935.axf

JavaScript Object Notation format (JSON) in row-major order
http://www.bom.gov.au/fwo/IDV60801/IDV60801.94935.json